createdAt,value
2023-01-10T00:02:13.189Z,13.90
2023-01-10T00:04:53.321Z,13.90
2023-01-10T00:07:40.188Z,13.90
2023-01-10T00:10:27.203Z,13.80
2023-01-10T00:13:32.204Z,13.80
2023-01-10T00:16:16.323Z,13.70
2023-01-10T00:19:03.189Z,13.70
2023-01-10T00:21:44.240Z,13.60
2023-01-10T00:24:31.206Z,13.50
2023-01-10T00:27:12.797Z,13.60
2023-01-10T00:29:59.216Z,13.50
2023-01-10T00:32:39.251Z,13.50
2023-01-10T00:35:26.204Z,13.40
2023-01-10T00:38:13.197Z,13.40
2023-01-10T00:41:07.183Z,13.40
2023-01-10T00:44:03.200Z,13.40
2023-01-10T00:46:43.246Z,13.40
2023-01-10T00:49:30.209Z,13.40
2023-01-10T00:52:17.175Z,13.40
2023-01-10T00:55:04.214Z,13.40
2023-01-10T00:57:51.209Z,13.40
2023-01-10T01:00:45.183Z,13.40
2023-01-10T01:03:32.215Z,13.30
2023-01-10T01:06:20.184Z,13.30
2023-01-10T01:09:07.197Z,13.30
2023-01-10T01:11:54.194Z,13.30
2023-01-10T01:14:34.687Z,13.30
2023-01-10T01:17:21.202Z,13.30
2023-01-10T01:20:01.758Z,13.30
2023-01-10T01:22:48.196Z,13.30
2023-01-10T01:25:35.211Z,13.30
2023-01-10T01:28:19.270Z,13.30
2023-01-10T01:31:06.201Z,13.30
2023-01-10T01:33:53.182Z,13.30
2023-01-10T01:36:40.207Z,13.30
2023-01-10T01:39:27.172Z,13.30
2023-01-10T01:42:28.254Z,13.40
2023-01-10T01:45:30.205Z,13.40
2023-01-10T01:48:38.237Z,13.30
2023-01-10T01:51:28.296Z,13.40
2023-01-10T01:54:18.194Z,13.40
2023-01-10T01:57:12.222Z,13.40
2023-01-10T02:00:09.210Z,13.40
2023-01-10T02:03:03.076Z,13.40
2023-01-10T02:05:52.190Z,13.40
2023-01-10T02:08:33.720Z,13.40
2023-01-10T02:11:23.179Z,13.40
2023-01-10T02:14:13.230Z,13.40
2023-01-10T02:16:53.320Z,13.40
2023-01-10T02:19:57.217Z,13.40
2023-01-10T02:22:49.249Z,13.40
2023-01-10T02:25:52.170Z,13.30
2023-01-10T02:29:04.211Z,13.30
2023-01-10T02:32:06.255Z,13.40
2023-01-10T02:35:10.202Z,13.30
2023-01-10T02:38:32.267Z,13.30
2023-01-10T02:41:44.210Z,13.40
2023-01-10T02:44:34.196Z,13.40
2023-01-10T02:47:15.279Z,13.40
2023-01-10T02:50:02.205Z,13.40
2023-01-10T02:52:42.284Z,13.40
2023-01-10T02:55:36.210Z,13.40
2023-01-10T02:58:34.264Z,13.40
2023-01-10T03:01:44.265Z,13.50
2023-01-10T03:04:54.240Z,13.50
2023-01-10T03:08:03.710Z,13.50
2023-01-10T03:11:11.209Z,13.50
2023-01-10T03:13:57.288Z,13.50
2023-01-10T03:16:48.192Z,13.50
2023-01-10T03:19:34.743Z,13.50
2023-01-10T03:22:24.192Z,13.50
2023-01-10T03:25:14.305Z,13.50
2023-01-10T03:28:06.200Z,13.50
2023-01-10T03:30:53.886Z,13.50
2023-01-10T03:33:43.241Z,13.40
2023-01-10T03:36:52.197Z,13.40
2023-01-10T03:39:58.285Z,13.40
2023-01-10T03:43:21.208Z,13.50
2023-01-10T03:46:09.408Z,13.50
2023-01-10T03:48:56.206Z,13.50
2023-01-10T03:51:44.226Z,13.50
2023-01-10T03:54:32.226Z,13.50
2023-01-10T03:57:14.254Z,13.50
2023-01-10T04:00:04.212Z,13.50
2023-01-10T04:02:51.189Z,13.50
2023-01-10T04:05:38.280Z,13.50
2023-01-10T04:08:18.200Z,13.50
2023-01-10T04:11:08.250Z,13.50
2023-01-10T04:13:49.216Z,13.50
2023-01-10T04:16:29.932Z,13.50
2023-01-10T04:19:16.192Z,13.50
2023-01-10T04:21:56.684Z,13.50
2023-01-10T04:24:43.217Z,13.40
2023-01-10T04:27:31.214Z,13.40
2023-01-10T04:30:12.301Z,13.40
2023-01-10T04:32:59.220Z,13.50
2023-01-10T04:35:39.249Z,13.40
2023-01-10T04:38:26.213Z,13.50
2023-01-10T04:41:06.309Z,13.50
2023-01-10T04:43:53.202Z,13.50
2023-01-10T04:46:33.318Z,13.50
2023-01-10T04:49:20.206Z,13.60
2023-01-10T04:52:00.254Z,13.60
2023-01-10T04:54:47.194Z,13.60
2023-01-10T04:57:27.319Z,13.60
2023-01-10T05:00:15.193Z,13.60
2023-01-10T05:03:02.307Z,13.70
2023-01-10T05:05:42.933Z,13.70
2023-01-10T05:08:29.190Z,13.70
2023-01-10T05:11:16.256Z,13.70
2023-01-10T05:13:57.200Z,13.70
2023-01-10T05:16:44.292Z,13.70
2023-01-10T05:19:24.197Z,13.70
2023-01-10T05:22:04.709Z,13.70
2023-01-10T05:24:51.413Z,13.80
2023-01-10T05:27:31.725Z,13.70
2023-01-10T05:30:18.205Z,13.80
2023-01-10T05:33:05.232Z,13.80
2023-01-10T05:35:45.229Z,13.70
2023-01-10T05:38:32.269Z,13.80
2023-01-10T05:41:13.247Z,13.70
2023-01-10T05:44:00.259Z,13.70
2023-01-10T05:46:40.208Z,13.70
2023-01-10T05:49:27.264Z,13.70
2023-01-10T05:52:07.200Z,13.60
2023-01-10T05:54:54.215Z,13.60
2023-01-10T05:57:41.202Z,13.60
2023-01-10T06:00:36.186Z,13.60
2023-01-10T06:03:24.205Z,13.60
2023-01-10T06:06:04.320Z,13.50
2023-01-10T06:08:51.207Z,13.50
2023-01-10T06:11:38.190Z,13.50
2023-01-10T06:14:25.269Z,13.50
2023-01-10T06:17:05.190Z,13.50
2023-01-10T06:19:52.279Z,13.40
2023-01-10T06:22:33.213Z,13.40
2023-01-10T06:25:14.990Z,13.40
2023-01-10T06:28:01.209Z,13.40
2023-01-10T06:30:50.209Z,13.40
2023-01-10T06:33:52.218Z,13.40
2023-01-10T06:36:39.201Z,13.40
2023-01-10T06:39:19.322Z,13.40
2023-01-10T06:42:07.193Z,13.40
2023-01-10T06:44:47.254Z,13.40
2023-01-10T06:47:34.219Z,13.40
2023-01-10T06:50:22.205Z,13.40
2023-01-10T06:53:04.415Z,13.40
2023-01-10T06:55:51.193Z,13.40
2023-01-10T06:58:32.692Z,13.40
2023-01-10T07:01:21.339Z,13.40
2023-01-10T07:04:08.637Z,13.40
2023-01-10T07:06:48.208Z,13.40
2023-01-10T07:09:29.073Z,13.50
2023-01-10T07:12:16.202Z,13.40
2023-01-10T07:15:03.213Z,13.50
2023-01-10T07:17:50.209Z,13.60
2023-01-10T07:20:37.210Z,13.80
2023-01-10T07:23:24.206Z,13.90
2023-01-10T07:26:14.221Z,14.00
2023-01-10T07:29:04.210Z,14.10
2023-01-10T07:31:51.186Z,14.20
2023-01-10T07:34:31.259Z,14.30
2023-01-10T07:37:18.197Z,14.40
2023-01-10T07:39:58.258Z,14.40
2023-01-10T07:42:45.204Z,14.50
2023-01-10T07:45:26.947Z,14.60
2023-01-10T07:48:13.208Z,14.60
2023-01-10T07:51:00.190Z,14.70
2023-01-10T07:53:47.210Z,14.80
2023-01-10T07:56:27.241Z,14.80
2023-01-10T07:59:14.208Z,14.80
2023-01-10T08:02:01.261Z,14.80
2023-01-10T08:04:41.218Z,14.90
2023-01-10T08:07:21.716Z,14.90
2023-01-10T08:10:08.190Z,15.00
2023-01-10T08:12:57.732Z,15.00
2023-01-10T08:15:37.303Z,15.10
2023-01-10T08:18:25.224Z,15.10
2023-01-10T08:21:05.255Z,15.10
2023-01-10T08:23:52.201Z,15.20
2023-01-10T08:26:32.260Z,15.30
2023-01-10T08:29:19.201Z,15.30
2023-01-10T08:31:59.308Z,15.40
2023-01-10T08:34:46.201Z,15.40
2023-01-10T08:37:26.343Z,15.50
2023-01-10T08:40:14.219Z,15.60
2023-01-10T08:42:54.414Z,15.60
2023-01-10T08:45:41.211Z,15.60
2023-01-10T08:48:21.306Z,15.70
2023-01-10T08:51:16.210Z,15.70
2023-01-10T08:54:03.214Z,15.70
2023-01-10T08:56:50.226Z,15.70
2023-01-10T08:59:30.267Z,15.70
2023-01-10T09:02:20.342Z,15.70
2023-01-10T09:05:15.083Z,15.70
2023-01-10T09:08:03.521Z,15.70
2023-01-10T09:10:50.222Z,15.80
2023-01-10T09:13:31.742Z,15.80
2023-01-10T09:16:18.239Z,15.80
2023-01-10T09:19:05.210Z,15.90
2023-01-10T09:21:45.260Z,15.80
2023-01-10T09:24:32.228Z,15.80
2023-01-10T09:27:12.278Z,15.80
2023-01-10T09:29:59.213Z,15.90
2023-01-10T09:32:39.296Z,15.90
2023-01-10T09:35:26.220Z,15.90
2023-01-10T09:38:15.230Z,15.90
2023-01-10T09:41:05.245Z,15.90
2023-01-10T09:44:28.210Z,15.90
2023-01-10T09:47:24.273Z,15.90
2023-01-10T09:50:13.221Z,16.00
2023-01-10T09:52:59.236Z,16.00
2023-01-10T09:55:49.233Z,15.90
2023-01-10T09:58:34.283Z,16.00
2023-01-10T10:01:46.221Z,16.00
2023-01-10T10:04:36.597Z,16.00
2023-01-10T10:07:28.214Z,16.00
2023-01-10T10:10:17.105Z,16.10
2023-01-10T10:13:28.177Z,16.10
2023-01-10T10:16:46.230Z,16.10
2023-01-10T10:19:53.276Z,16.10
2023-01-10T10:23:33.945Z,16.20
2023-01-10T10:26:26.270Z,16.20
2023-01-10T10:29:25.413Z,16.20
2023-01-10T10:32:50.214Z,16.20
2023-01-10T10:35:45.222Z,16.20
2023-01-10T10:38:31.259Z,16.20
2023-01-10T10:41:42.242Z,16.30
2023-01-10T10:44:45.270Z,16.20
2023-01-10T10:47:39.221Z,16.30
2023-01-10T10:50:29.234Z,16.30
2023-01-10T10:53:11.326Z,16.30
2023-01-10T10:55:59.218Z,16.30
2023-01-10T10:58:43.054Z,16.30
2023-01-10T11:01:32.423Z,16.30
2023-01-10T11:04:15.898Z,16.30
2023-01-10T11:07:02.277Z,16.30
2023-01-10T11:09:46.033Z,16.30
2023-01-10T11:12:36.259Z,16.30
2023-01-10T11:15:51.238Z,16.30
2023-01-10T11:18:38.478Z,16.30
2023-01-10T11:21:26.218Z,16.30
2023-01-10T11:24:13.228Z,16.30
2023-01-10T11:26:54.778Z,16.30
2023-01-10T11:29:57.238Z,16.30
2023-01-10T11:32:54.364Z,16.30
2023-01-10T11:35:40.230Z,16.30
2023-01-10T11:38:29.908Z,16.30
2023-01-10T11:41:17.222Z,16.30
2023-01-10T11:44:15.965Z,16.30
2023-01-10T11:47:03.268Z,16.30
2023-01-10T11:49:46.749Z,16.30
2023-01-10T11:52:39.231Z,16.30
2023-01-10T11:55:23.331Z,16.30
2023-01-10T11:58:27.212Z,16.30
2023-01-10T12:01:36.415Z,16.30
2023-01-10T12:04:24.218Z,16.30
2023-01-10T12:07:09.565Z,16.30
2023-01-10T12:10:08.221Z,16.30
2023-01-10T12:12:58.233Z,16.30
2023-01-10T12:15:45.244Z,16.30
2023-01-10T12:18:25.350Z,16.30
2023-01-10T12:21:13.240Z,16.40
2023-01-10T12:23:58.574Z,16.40
2023-01-10T12:26:47.225Z,16.30
2023-01-10T12:29:41.221Z,16.30
2023-01-10T12:32:31.287Z,16.30
2023-01-10T12:35:27.216Z,16.40
2023-01-10T12:38:52.234Z,16.30
2023-01-10T12:42:07.216Z,16.30
2023-01-10T12:45:00.277Z,16.40
2023-01-10T12:47:46.576Z,16.30
2023-01-10T12:50:42.224Z,16.30
2023-01-10T12:53:35.523Z,16.40
2023-01-10T12:56:28.228Z,16.30
2023-01-10T12:59:36.142Z,16.30
2023-01-10T13:02:33.310Z,16.30
2023-01-10T13:05:40.564Z,16.30
2023-01-10T13:08:29.215Z,16.30
2023-01-10T13:11:21.225Z,16.30
2023-01-10T13:14:13.234Z,16.30
2023-01-10T13:17:05.289Z,16.30
2023-01-10T13:19:45.216Z,16.30
2023-01-10T13:22:43.215Z,16.30
2023-01-10T13:25:30.367Z,16.30
2023-01-10T13:28:33.213Z,16.30
2023-01-10T13:31:36.286Z,16.40
2023-01-10T13:34:25.219Z,16.30
2023-01-10T13:37:09.289Z,16.30
2023-01-10T13:40:05.234Z,16.30
2023-01-10T13:43:30.233Z,16.30
2023-01-10T13:46:16.905Z,16.30
2023-01-10T13:49:08.978Z,16.30
2023-01-10T13:52:25.991Z,16.30
2023-01-10T13:55:15.222Z,16.30
2023-01-10T13:57:59.937Z,16.30
2023-01-10T14:01:07.334Z,16.30
2023-01-10T14:04:05.301Z,16.30
2023-01-10T14:06:48.215Z,16.30
2023-01-10T14:09:45.234Z,16.30
2023-01-10T14:12:44.222Z,16.30
2023-01-10T14:15:37.348Z,16.30
2023-01-10T14:18:45.227Z,16.30
2023-01-10T14:21:29.062Z,16.30
2023-01-10T14:24:15.231Z,16.30
2023-01-10T14:26:58.495Z,16.30
2023-01-10T14:29:47.239Z,16.30
2023-01-10T14:32:34.681Z,16.30
2023-01-10T14:35:22.239Z,16.30
2023-01-10T14:38:10.280Z,16.30
2023-01-10T14:40:53.229Z,16.30
2023-01-10T14:43:49.230Z,16.30
2023-01-10T14:46:45.608Z,16.20
2023-01-10T14:49:54.236Z,16.20
2023-01-10T14:52:35.370Z,16.20
2023-01-10T14:55:28.257Z,16.20
2023-01-10T14:58:09.319Z,16.20
2023-01-10T15:01:04.275Z,16.20
2023-01-10T15:03:54.226Z,16.20
2023-01-10T15:06:41.227Z,16.20
2023-01-10T15:09:28.263Z,16.20
2023-01-10T15:12:12.281Z,16.20
2023-01-10T15:15:26.238Z,16.20
2023-01-10T15:18:09.278Z,16.20
2023-01-10T15:20:56.262Z,16.10
2023-01-10T15:23:43.339Z,16.10
2023-01-10T15:26:36.210Z,16.20
2023-01-10T15:29:22.017Z,16.10
2023-01-10T15:32:17.221Z,16.10
2023-01-10T15:35:00.295Z,16.10
2023-01-10T15:37:57.221Z,16.10
2023-01-10T15:40:43.373Z,16.10
2023-01-10T15:43:33.223Z,16.10
2023-01-10T15:46:40.312Z,16.10
2023-01-10T15:49:32.233Z,16.10
2023-01-10T15:52:29.269Z,16.10
2023-01-10T15:55:46.242Z,16.10
2023-01-10T15:58:32.403Z,16.00
2023-01-10T16:01:30.283Z,16.00
2023-01-10T16:04:20.275Z,16.00
2023-01-10T16:07:11.233Z,16.00
2023-01-10T16:10:04.226Z,16.00
2023-01-10T16:13:06.088Z,16.00
2023-01-10T16:15:52.241Z,16.00
2023-01-10T16:18:33.286Z,15.90
2023-01-10T16:21:21.240Z,16.00
2023-01-10T16:24:01.278Z,15.90
2023-01-10T16:26:48.248Z,15.90
2023-01-10T16:29:28.299Z,15.90
2023-01-10T16:32:22.262Z,16.00
2023-01-10T16:35:02.691Z,15.90
2023-01-10T16:37:50.239Z,15.90
2023-01-10T16:40:50.237Z,15.90
2023-01-10T16:43:37.240Z,15.90
2023-01-10T16:46:17.307Z,15.90
2023-01-10T16:49:04.234Z,15.90
2023-01-10T16:51:45.337Z,15.80
2023-01-10T16:54:32.246Z,15.90
2023-01-10T16:57:13.816Z,15.80
2023-01-10T17:00:00.241Z,15.80
2023-01-10T17:02:47.368Z,15.80
2023-01-10T17:05:27.249Z,15.80
2023-01-10T17:08:15.525Z,15.80
2023-01-10T17:11:09.238Z,15.80
2023-01-10T17:13:56.243Z,15.80
2023-01-10T17:16:36.378Z,15.80
2023-01-10T17:19:24.397Z,15.80
2023-01-10T17:22:11.236Z,15.80
2023-01-10T17:24:51.422Z,15.80
2023-01-10T17:27:38.220Z,15.80
2023-01-10T17:30:18.770Z,15.80
2023-01-10T17:33:05.228Z,15.80
2023-01-10T17:35:52.273Z,15.80
2023-01-10T17:38:35.236Z,15.80
2023-01-10T17:41:22.239Z,15.80
2023-01-10T17:44:09.254Z,15.80
2023-01-10T17:46:49.452Z,15.80
2023-01-10T17:49:37.227Z,15.80
2023-01-10T17:52:18.123Z,15.80
2023-01-10T17:55:05.228Z,15.80
2023-01-10T17:57:45.741Z,15.80
2023-01-10T18:00:33.251Z,15.80
2023-01-10T18:03:27.218Z,15.80
2023-01-10T18:06:23.392Z,15.80
2023-01-10T18:09:07.239Z,15.80
2023-01-10T18:11:54.250Z,15.80
2023-01-10T18:14:41.382Z,15.80
2023-01-10T18:17:22.249Z,15.80
2023-01-10T18:20:09.289Z,15.80
2023-01-10T18:23:08.260Z,15.90
2023-01-10T18:26:03.565Z,15.90
2023-01-10T18:28:55.224Z,15.80
2023-01-10T18:31:43.426Z,15.80
2023-01-10T18:34:30.364Z,15.80
2023-01-10T18:37:10.986Z,15.80
2023-01-10T18:40:04.227Z,15.80
2023-01-10T18:42:44.792Z,15.80
2023-01-10T18:45:33.247Z,15.90
2023-01-10T18:48:16.383Z,15.90
2023-01-10T18:51:08.258Z,15.90
2023-01-10T18:53:49.000Z,15.90
2023-01-10T18:56:35.256Z,15.90
2023-01-10T18:59:22.253Z,15.90
2023-01-10T19:02:16.322Z,15.90
2023-01-10T19:05:03.242Z,15.90
2023-01-10T19:07:43.317Z,15.90
2023-01-10T19:10:40.709Z,15.90
2023-01-10T19:13:29.287Z,15.90
2023-01-10T19:16:21.263Z,15.90
2023-01-10T19:19:11.383Z,15.90
2023-01-10T19:21:58.253Z,15.90
2023-01-10T19:24:38.917Z,15.90
2023-01-10T19:27:25.236Z,16.00
2023-01-10T19:30:12.259Z,15.90
2023-01-10T19:32:59.306Z,15.90
2023-01-10T19:35:42.252Z,16.00
2023-01-10T19:38:29.300Z,15.90
2023-01-10T19:41:10.251Z,15.90
2023-01-10T19:44:03.284Z,16.00
2023-01-10T19:46:45.325Z,15.90
2023-01-10T19:49:34.259Z,15.90
2023-01-10T19:52:14.341Z,15.90
2023-01-10T19:55:01.257Z,15.90
2023-01-10T19:57:41.287Z,15.90
2023-01-10T20:00:28.249Z,16.00
2023-01-10T20:03:15.317Z,15.90
2023-01-10T20:05:55.233Z,15.90
2023-01-10T20:08:35.958Z,16.00
2023-01-10T20:11:22.247Z,16.00
2023-01-10T20:14:20.359Z,16.00
2023-01-10T20:17:00.239Z,16.00
2023-01-10T20:19:48.609Z,16.00
2023-01-10T20:22:28.231Z,16.10
2023-01-10T20:25:15.242Z,16.00
2023-01-10T20:28:02.258Z,16.10
2023-01-10T20:30:42.707Z,16.10
2023-01-10T20:33:29.261Z,16.10
2023-01-10T20:36:25.269Z,16.00
2023-01-10T20:39:12.236Z,15.90
2023-01-10T20:41:52.321Z,15.60
2023-01-10T20:44:39.241Z,15.40
2023-01-10T20:47:21.502Z,15.20
2023-01-10T20:50:08.246Z,15.10
2023-01-10T20:52:48.325Z,14.90
2023-01-10T20:55:35.250Z,14.80
2023-01-10T20:58:15.286Z,14.70
2023-01-10T21:01:02.255Z,14.60
2023-01-10T21:03:51.677Z,14.50
2023-01-10T21:06:31.300Z,14.40
2023-01-10T21:09:13.017Z,14.30
2023-01-10T21:12:10.691Z,14.30
2023-01-10T21:15:06.313Z,14.20
2023-01-10T21:17:48.238Z,14.10
2023-01-10T21:20:35.320Z,14.10
2023-01-10T21:23:16.253Z,14.00
2023-01-10T21:26:11.377Z,14.00
2023-01-10T21:28:56.266Z,14.00
2023-01-10T21:31:36.732Z,13.90
2023-01-10T21:34:23.258Z,13.90
2023-01-10T21:37:10.293Z,13.90
2023-01-10T21:39:50.249Z,13.90
2023-01-10T21:42:44.723Z,13.90
2023-01-10T21:45:32.261Z,13.90
2023-01-10T21:48:12.762Z,13.90
2023-01-10T21:51:04.251Z,13.80
2023-01-10T21:53:51.354Z,13.80
2023-01-10T21:56:31.244Z,13.80
2023-01-10T21:59:18.397Z,13.80
2023-01-10T22:02:12.247Z,13.70
2023-01-10T22:04:53.695Z,13.70
2023-01-10T22:07:41.280Z,13.70
2023-01-10T22:10:22.082Z,13.70
2023-01-10T22:13:08.266Z,13.70
2023-01-10T22:15:49.300Z,13.70
2023-01-10T22:18:36.273Z,13.70
2023-01-10T22:21:19.609Z,13.70
2023-01-10T22:24:06.264Z,13.70
2023-01-10T22:26:53.254Z,13.70
2023-01-10T22:29:41.252Z,13.60
2023-01-10T22:32:28.260Z,13.70
2023-01-10T22:35:08.367Z,13.70
2023-01-10T22:37:55.254Z,13.70
2023-01-10T22:40:35.349Z,13.70
2023-01-10T22:43:22.229Z,13.70
2023-01-10T22:46:02.323Z,13.70
2023-01-10T22:48:49.239Z,13.70
2023-01-10T22:51:35.351Z,13.70
2023-01-10T22:54:22.259Z,13.80
2023-01-10T22:57:02.314Z,13.80
2023-01-10T22:59:49.219Z,13.80
2023-01-10T23:02:36.311Z,13.80
2023-01-10T23:05:16.256Z,13.80
2023-01-10T23:08:03.316Z,13.80
2023-01-10T23:10:45.232Z,13.80
2023-01-10T23:13:32.271Z,13.80
2023-01-10T23:16:15.288Z,13.90
2023-01-10T23:19:03.293Z,13.90
2023-01-10T23:21:43.225Z,13.90
2023-01-10T23:24:30.285Z,13.90
2023-01-10T23:27:10.217Z,14.00
2023-01-10T23:29:50.745Z,14.00
2023-01-10T23:32:37.225Z,14.00
2023-01-10T23:35:17.709Z,14.00
2023-01-10T23:38:04.222Z,14.10
2023-01-10T23:40:44.931Z,14.10
2023-01-10T23:43:31.234Z,14.10
2023-01-10T23:46:18.302Z,14.10
2023-01-10T23:48:58.286Z,14.10
2023-01-10T23:51:46.221Z,14.10
2023-01-10T23:54:33.221Z,14.10
2023-01-10T23:57:13.744Z,14.10
